Time;durP1;ratioP1;P1;durP2;ratioP2;P2;SDS_P1;SDS_P2;PMS_P1;PMS_P2;Temp;Humidity;BMP_temperature;BMP_pressure;BME280_temperature;BME280_humidity;BME280_pressure;Samples;Min_cycle;Max_cycle;Signal;HPM_P1;HPM_P2
2023/09/30 00:01:26;;;;;;;5.18;4.68;;;24.40;99.90;;;;;;5013237;28;20236;-76
2023/09/30 00:03:57;;;;;;;6.30;5.25;;;24.40;99.90;;;;;;5033413;28;20668;-78
2023/09/30 00:06:28;;;;;;;6.03;5.00;;;24.50;99.90;;;;;;5051189;28;20203;-78
2023/09/30 00:08:58;;;;;;;5.47;4.80;;;24.60;99.90;;;;;;5051274;28;20323;-79
2023/09/30 00:11:29;;;;;;;6.22;4.60;;;24.70;99.90;;;;;;5025307;28;20205;-77
2023/09/30 00:14:02;;;;;;;5.97;4.78;;;24.70;99.90;;;;;;5026684;28;20327;-79
2023/09/30 00:16:32;;;;;;;7.28;4.65;;;24.70;99.90;;;;;;5023886;28;20312;-78
2023/09/30 00:19:03;;;;;;;6.45;4.20;;;24.70;99.90;;;;;;5030593;28;20541;-77
2023/09/30 00:21:34;;;;;;;4.80;4.25;;;24.90;99.90;;;;;;5031461;28;20216;-78
2023/09/30 00:24:05;;;;;;;4.63;4.00;;;25.00;99.90;;;;;;5030980;28;20212;-78
2023/09/30 00:26:35;;;;;;;8.38;4.22;;;25.20;99.90;;;;;;5017651;28;20646;-79
2023/09/30 00:29:10;;;;;;;6.05;4.30;;;25.30;99.90;;;;;;5030757;28;20581;-78
2023/09/30 00:31:40;;;;;;;5.78;3.88;;;25.50;99.90;;;;;;5029343;28;20200;-79
2023/09/30 00:34:11;;;;;;;4.38;3.70;;;25.50;99.90;;;;;;5030042;28;20221;-78
2023/09/30 00:36:42;;;;;;;4.35;3.72;;;25.70;99.90;;;;;;5028177;28;20207;-79
2023/09/30 00:39:13;;;;;;;4.00;3.50;;;25.70;99.90;;;;;;5043100;28;20200;-78
2023/09/30 00:41:43;;;;;;;6.35;3.78;;;25.90;99.90;;;;;;5050885;28;20664;-78
2023/09/30 00:44:16;;;;;;;7.40;3.80;;;26.00;99.90;;;;;;5031138;28;20247;-78
2023/09/30 00:46:47;;;;;;;7.25;3.80;;;26.10;99.90;;;;;;5028990;28;20200;-78
2023/09/30 00:49:19;;;;;;;9.15;4.20;;;26.20;99.90;;;;;;5030855;28;20197;-79
2023/09/30 00:51:51;;;;;;;6.15;4.00;;;26.30;99.90;;;;;;5030868;28;20224;-78
2023/09/30 00:54:24;;;;;;;6.78;3.88;;;26.40;99.90;;;;;;5029242;28;20232;-78
2023/09/30 00:56:57;;;;;;;8.05;3.97;;;26.50;99.90;;;;;;5027970;28;20609;-78
2023/09/30 00:59:32;;;;;;;6.38;3.88;;;26.40;99.90;;;;;;5010599;28;20242;-77
2023/09/30 01:02:05;;;;;;;7.25;4.05;;;26.40;99.90;;;;;;5025513;28;20208;-80
2023/09/30 01:04:36;;;;;;;5.72;3.78;;;26.30;99.90;;;;;;5030280;28;20288;-79
2023/09/30 01:07:07;;;;;;;5.97;3.70;;;26.30;99.90;;;;;;5029811;28;20220;-78
2023/09/30 01:09:38;;;;;;;7.43;3.80;;;26.30;99.90;;;;;;5030115;28;20675;-79
2023/09/30 01:12:09;;;;;;;4.05;3.22;;;26.40;99.90;;;;;;5033752;28;20718;-79
2023/09/30 01:14:42;;;;;;;9.73;3.40;;;26.30;99.90;;;;;;5050275;28;20232;-79
2023/09/30 01:17:13;;;;;;;5.47;3.80;;;26.30;99.90;;;;;;5036274;28;20611;-79
2023/09/30 01:19:44;;;;;;;6.60;4.30;;;26.30;99.90;;;;;;5028896;28;20198;-79
2023/09/30 01:22:17;;;;;;;7.03;4.32;;;26.50;99.90;;;;;;5030515;28;20209;-78
2023/09/30 01:24:48;;;;;;;7.25;4.32;;;26.50;99.90;;;;;;5030433;28;20229;-79
2023/09/30 01:27:19;;;;;;;7.20;4.57;;;26.50;99.90;;;;;;5013276;28;20194;-79
2023/09/30 01:29:50;;;;;;;10.32;4.35;;;26.70;99.90;;;;;;5021270;28;20289;-80
2023/09/30 01:32:21;;;;;;;8.63;4.50;;;26.70;99.90;;;;;;5030113;28;20229;-79
2023/09/30 01:34:52;;;;;;;9.75;4.78;;;26.70;99.90;;;;;;5030090;28;20243;-80
2023/09/30 01:37:24;;;;;;;8.98;4.50;;;26.70;99.90;;;;;;5023744;28;20194;-79
2023/09/30 01:39:55;;;;;;;8.38;4.70;;;26.80;99.90;;;;;;5021527;28;20196;-79
2023/09/30 01:42:26;;;;;;;11.13;4.95;;;26.80;99.90;;;;;;5031612;28;20204;-79
2023/09/30 01:44:56;;;;;;;9.82;5.00;;;26.80;99.90;;;;;;5027496;28;20197;-78
2023/09/30 01:47:27;;;;;;;8.10;4.72;;;26.90;99.90;;;;;;5022275;28;20260;-78
2023/09/30 01:49:59;;;;;;;8.65;4.97;;;27.00;99.90;;;;;;5014707;28;20202;-79
2023/09/30 01:52:31;;;;;;;9.50;4.88;;;27.00;99.90;;;;;;5034004;28;20710;-79
2023/09/30 01:55:02;;;;;;;7.55;4.25;;;27.20;99.90;;;;;;5033702;28;20225;-79
2023/09/30 01:57:33;;;;;;;11.55;4.35;;;27.10;99.90;;;;;;5033546;28;20194;-79
2023/09/30 02:00:04;;;;;;;8.50;4.60;;;27.10;99.90;;;;;;5034686;28;20204;-79
2023/09/30 02:02:35;;;;;;;10.07;4.45;;;27.20;99.90;;;;;;5033075;28;20193;-78
2023/09/30 02:05:07;;;;;;;6.43;4.05;;;27.10;99.90;;;;;;5053567;28;20200;-79
2023/09/30 02:07:40;;;;;;;7.22;4.05;;;27.10;99.90;;;;;;5053934;28;20598;-79
2023/09/30 02:10:12;;;;;;;7.68;4.55;;;27.10;99.90;;;;;;5053884;28;20196;-79
2023/09/30 02:12:43;;;;;;;12.15;4.57;;;27.20;99.90;;;;;;5023181;28;20248;-78
2023/09/30 02:15:14;;;;;;;6.78;4.40;;;27.20;99.90;;;;;;5022463;28;20190;-78
2023/09/30 02:17:45;;;;;;;9.07;4.93;;;27.30;99.90;;;;;;5041586;28;20204;-79
2023/09/30 02:20:19;;;;;;;9.15;4.88;;;27.30;99.90;;;;;;5037832;28;20204;-79
2023/09/30 02:22:52;;;;;;;7.75;4.40;;;27.30;99.90;;;;;;5054475;28;20204;-78
2023/09/30 02:25:22;;;;;;;7.30;4.07;;;27.40;99.90;;;;;;5036525;28;20307;-79
2023/09/30 02:27:53;;;;;;;8.05;4.10;;;27.50;99.90;;;;;;5022270;28;20217;-78
2023/09/30 02:30:24;;;;;;;9.57;4.57;;;27.50;99.90;;;;;;5033704;28;20675;-79
2023/09/30 02:32:56;;;;;;;10.00;5.22;;;27.50;99.90;;;;;;5033902;28;20189;-80
2023/09/30 02:35:27;;;;;;;11.60;5.78;;;27.30;99.90;;;;;;5033105;28;20276;-79
2023/09/30 02:38:00;;;;;;;7.60;4.50;;;27.40;99.90;;;;;;5034423;28;20205;-79
2023/09/30 02:40:31;;;;;;;8.20;4.20;;;27.30;99.90;;;;;;5033458;28;20190;-78
2023/09/30 02:43:01;;;;;;;7.30;4.03;;;27.20;99.90;;;;;;5023894;28;20272;-79
2023/09/30 02:45:33;;;;;;;8.70;3.85;;;27.30;99.90;;;;;;5032172;28;20197;-78
2023/09/30 02:48:03;;;;;;;7.75;4.15;;;27.40;99.90;;;;;;5033943;28;20201;-79
2023/09/30 02:50:34;;;;;;;8.07;3.95;;;27.60;99.90;;;;;;5033575;28;20201;-78
2023/09/30 02:53:08;;;;;;;6.95;3.78;;;27.70;99.90;;;;;;5020868;28;20200;-81
2023/09/30 02:55:38;;;;;;;9.52;4.35;;;27.90;99.90;;;;;;5032290;28;20197;-79
2023/09/30 02:58:10;;;;;;;6.18;3.95;;;28.10;99.90;;;;;;5035825;28;20197;-80
2023/09/30 03:00:40;;;;;;;9.00;4.40;;;28.10;99.90;;;;;;5036335;28;20286;-80
2023/09/30 03:03:11;;;;;;;6.13;3.75;;;28.00;99.90;;;;;;5023807;28;20210;-80
2023/09/30 03:05:43;;;;;;;7.10;3.90;;;28.00;99.90;;;;;;5021082;28;20572;-79
2023/09/30 03:08:18;;;;;;;10.90;3.88;;;28.10;99.90;;;;;;5031822;28;20193;-80
2023/09/30 03:10:48;;;;;;;8.55;4.07;;;28.00;99.90;;;;;;5031740;28;20186;-80
2023/09/30 03:13:21;;;;;;;7.05;3.63;;;27.90;99.90;;;;;;5037365;28;20233;-79
2023/09/30 03:15:52;;;;;;;5.93;3.95;;;28.00;99.90;;;;;;5034065;28;20251;-78
2023/09/30 03:18:26;;;;;;;7.47;3.90;;;28.20;99.90;;;;;;5024849;28;20669;-78
2023/09/30 03:21:01;;;;;;;7.28;4.30;;;27.90;99.90;;;;;;5012625;28;20229;-80
2023/09/30 03:23:33;;;;;;;8.80;4.25;;;28.00;99.90;;;;;;5028512;28;20196;-80
2023/09/30 03:26:06;;;;;;;8.27;4.47;;;28.00;99.90;;;;;;5026913;28;20688;-79
2023/09/30 03:28:38;;;;;;;10.02;4.55;;;28.10;99.90;;;;;;5021715;28;20696;-79
2023/09/30 03:31:09;;;;;;;9.27;4.40;;;28.00;99.90;;;;;;5030642;28;20201;-80
2023/09/30 03:33:40;;;;;;;6.25;4.13;;;27.90;99.90;;;;;;5031505;28;20221;-79
2023/09/30 03:36:13;;;;;;;7.45;4.38;;;28.00;99.90;;;;;;5032253;28;20212;-80
2023/09/30 03:38:45;;;;;;;6.60;4.20;;;28.10;99.90;;;;;;5032278;28;20660;-80
2023/09/30 03:41:16;;;;;;;7.93;4.03;;;28.20;99.90;;;;;;5032827;28;20201;-80
2023/09/30 03:43:49;;;;;;;5.57;4.10;;;28.30;99.90;;;;;;5031685;28;20687;-80
2023/09/30 03:46:19;;;;;;;7.85;3.97;;;28.40;99.90;;;;;;5032834;28;20201;-80
2023/09/30 03:48:51;;;;;;;7.55;4.00;;;28.20;99.90;;;;;;5029654;28;20215;-80
2023/09/30 03:51:24;;;;;;;8.05;4.40;;;28.30;99.90;;;;;;5026518;28;20197;-79
2023/09/30 03:53:57;;;;;;;7.65;4.00;;;28.20;99.90;;;;;;5031772;28;20631;-79
2023/09/30 03:56:28;;;;;;;9.57;4.38;;;28.30;99.90;;;;;;5031665;28;20201;-80
2023/09/30 03:58:58;;;;;;;8.80;4.47;;;28.20;99.90;;;;;;5030482;28;20576;-79
2023/09/30 04:01:29;;;;;;;7.47;3.90;;;28.20;99.90;;;;;;5030429;28;20197;-80
2023/09/30 04:04:00;;;;;;;9.63;4.70;;;28.00;99.90;;;;;;5050073;28;20196;-80
2023/09/30 04:06:31;;;;;;;5.22;3.65;;;28.00;99.90;;;;;;5038232;28;20194;-80
2023/09/30 04:09:08;;;;;;;10.23;3.97;;;27.70;99.90;;;;;;5021307;28;20249;-80
2023/09/30 04:11:42;;;;;;;6.18;3.50;;;27.80;99.90;;;;;;5031427;28;20608;-80
2023/09/30 04:14:13;;;;;;;8.27;3.85;;;27.80;99.90;;;;;;5031271;28;20320;-80
2023/09/30 04:16:44;;;;;;;10.32;3.80;;;27.80;99.90;;;;;;5033550;28;20204;-81
2023/09/30 04:19:15;;;;;;;7.25;3.70;;;27.80;99.90;;;;;;5031824;28;20280;-80
2023/09/30 04:21:46;;;;;;;8.90;3.80;;;27.80;99.90;;;;;;5030871;28;20203;-81
2023/09/30 04:24:20;;;;;;;8.18;3.47;;;27.90;99.90;;;;;;5012753;28;20197;-81
2023/09/30 04:26:54;;;;;;;9.85;3.72;;;28.00;99.90;;;;;;5016035;28;20194;-80
2023/09/30 04:29:24;;;;;;;10.23;3.65;;;28.00;99.90;;;;;;5030974;28;20276;-81
2023/09/30 04:31:55;;;;;;;11.27;3.75;;;28.00;99.90;;;;;;5013664;28;20200;-84
2023/09/30 04:34:27;;;;;;;9.20;3.42;;;28.00;99.90;;;;;;5011598;28;20271;-82
2023/09/30 04:37:00;;;;;;;6.80;3.47;;;27.80;99.90;;;;;;5023740;28;20240;-82
2023/09/30 04:39:35;;;;;;;7.95;3.20;;;27.80;99.90;;;;;;5032307;28;20679;-83
2023/09/30 04:42:06;;;;;;;11.45;3.63;;;27.80;99.90;;;;;;5031031;28;20224;-81
2023/09/30 04:44:41;;;;;;;9.48;3.92;;;27.70;99.90;;;;;;5031345;28;20280;-82
2023/09/30 04:47:13;;;;;;;7.88;3.30;;;27.60;99.90;;;;;;5022607;28;20201;-82
2023/09/30 04:49:44;;;;;;;8.27;3.60;;;27.60;99.90;;;;;;5025550;28;20204;-84
2023/09/30 04:52:18;;;;;;;10.98;4.05;;;27.50;99.90;;;;;;5011464;28;20194;-84
2023/09/30 04:54:50;;;;;;;9.13;3.95;;;27.50;99.90;;;;;;5029512;28;20897;-83
2023/09/30 04:57:21;;;;;;;11.38;3.83;;;27.40;99.90;;;;;;5031328;28;20197;-82
2023/09/30 04:59:52;;;;;;;8.10;3.47;;;27.30;99.90;;;;;;5029830;28;20193;-83
2023/09/30 05:02:23;;;;;;;12.18;4.20;;;27.30;99.90;;;;;;5011278;28;20194;-83
2023/09/30 05:04:54;;;;;;;8.02;3.50;;;27.30;99.90;;;;;;5019988;28;20284;-84
2023/09/30 05:07:27;;;;;;;11.43;3.65;;;27.30;99.90;;;;;;5030208;28;20664;-84
2023/09/30 05:10:04;;;;;;;8.63;3.63;;;27.10;99.90;;;;;;5016492;28;20652;-83
2023/09/30 05:12:35;;;;;;;9.55;3.67;;;27.00;99.90;;;;;;5010717;28;20237;-84
2023/09/30 05:15:06;;;;;;;7.72;3.40;;;27.10;99.90;;;;;;5010721;28;20237;-82
2023/09/30 05:17:37;;;;;;;9.82;3.88;;;27.10;99.90;;;;;;5012491;28;20284;-82
2023/09/30 05:20:12;;;;;;;10.38;3.55;;;27.00;99.90;;;;;;5032942;28;20199;-84
2023/09/30 05:22:47;;;;;;;8.57;3.70;;;27.10;99.90;;;;;;5034657;28;20796;-84
2023/09/30 05:25:20;;;;;;;11.00;3.65;;;27.10;99.90;;;;;;5034603;28;20722;-84
2023/09/30 05:27:50;;;;;;;7.68;3.67;;;27.10;99.90;;;;;;5034571;28;20220;-84
2023/09/30 05:30:21;;;;;;;10.25;3.58;;;27.20;99.90;;;;;;5018487;28;20204;-83
2023/09/30 05:32:52;;;;;;;9.57;3.58;;;27.40;99.90;;;;;;5018595;28;20587;-83
2023/09/30 05:35:23;;;;;;;7.93;3.38;;;27.40;99.90;;;;;;5015245;28;20225;-82
2023/09/30 05:37:54;;;;;;;10.18;3.47;;;27.30;99.90;;;;;;5015471;28;20248;-84
2023/09/30 05:40:30;;;;;;;7.50;3.70;;;27.50;99.90;;;;;;5021684;28;20190;-86
2023/09/30 05:43:01;;;;;;;11.57;3.50;;;27.70;99.90;;;;;;5033608;28;20296;-87
2023/09/30 05:45:35;;;;;;;6.28;3.20;;;27.60;99.90;;;;;;5036125;28;20209;-88
2023/09/30 05:48:06;;;;;;;9.68;3.67;;;27.60;99.90;;;;;;5029948;28;20200;-87
2023/09/30 05:50:38;;;;;;;7.25;3.45;;;27.60;99.90;;;;;;5016296;28;20202;-89
2023/09/30 05:53:10;;;;;;;12.07;3.35;;;27.50;99.90;;;;;;5015397;28;20205;-86
2023/09/30 05:55:46;;;;;;;6.93;3.45;;;27.40;99.90;;;;;;5015234;28;20272;-87
2023/09/30 05:58:17;;;;;;;9.05;3.55;;;27.50;99.90;;;;;;5022356;28;20288;-87
2023/09/30 06:00:50;;;;;;;9.57;3.63;;;27.70;99.90;;;;;;5031273;28;20664;-87
2023/09/30 06:03:21;;;;;;;6.20;2.92;;;27.80;99.90;;;;;;5035246;28;20205;-87
2023/09/30 06:05:52;;;;;;;9.05;3.72;;;27.90;99.90;;;;;;5034847;28;20204;-87
2023/09/30 06:08:23;;;;;;;10.65;3.60;;;28.10;99.90;;;;;;5025172;28;20194;-86
2023/09/30 06:10:58;;;;;;;10.05;3.60;;;28.20;99.90;;;;;;5028094;28;20649;-87
2023/09/30 06:13:31;;;;;;;10.13;3.33;;;28.20;99.90;;;;;;5034502;28;20275;-87
2023/09/30 06:16:02;;;;;;;10.95;3.72;;;28.30;99.90;;;;;;5034386;28;20283;-87
2023/09/30 06:18:33;;;;;;;8.90;3.60;;;28.50;99.90;;;;;;5041336;28;20214;-87
2023/09/30 06:21:04;;;;;;;10.88;3.40;;;28.70;99.90;;;;;;5035411;28;20190;-87
2023/09/30 06:23:34;;;;;;;9.50;3.65;;;28.80;99.90;;;;;;5015645;28;20193;-86
2023/09/30 06:26:07;;;;;;;9.30;3.50;;;28.90;99.90;;;;;;5034244;28;20207;-86
2023/09/30 06:28:40;;;;;;;6.57;3.10;;;28.90;99.90;;;;;;5020345;28;20220;-86
2023/09/30 06:31:12;;;;;;;7.55;2.85;;;29.20;99.90;;;;;;5015033;28;20252;-87
2023/09/30 06:33:43;;;;;;;4.25;2.78;;;29.30;99.90;;;;;;5024189;28;20471;-87
2023/09/30 06:36:15;;;;;;;8.20;3.20;;;29.50;99.90;;;;;;5046124;28;20231;-86
2023/09/30 06:38:48;;;;;;;10.60;3.20;;;29.40;99.90;;;;;;5040301;28;20565;-86
2023/09/30 06:41:23;;;;;;;7.80;3.17;;;29.00;99.90;;;;;;5018038;28;20276;-85
2023/09/30 06:43:54;;;;;;;9.45;3.13;;;29.00;99.90;;;;;;5036635;28;20560;-85
2023/09/30 06:46:26;;;;;;;7.20;3.10;;;29.00;99.90;;;;;;5037358;28;20204;-87
2023/09/30 06:48:58;;;;;;;8.25;2.85;;;29.30;99.90;;;;;;5033549;28;20660;-87
2023/09/30 06:51:31;;;;;;;8.88;3.05;;;28.90;99.90;;;;;;5014880;28;20193;-87
2023/09/30 06:54:02;;;;;;;7.53;3.00;;;28.90;99.90;;;;;;5034422;28;20212;-86
2023/09/30 06:56:37;;;;;;;7.05;2.97;;;29.00;99.90;;;;;;5026146;28;20198;-87
2023/09/30 06:59:08;;;;;;;8.38;2.88;;;29.10;99.90;;;;;;5029163;28;20201;-88
2023/09/30 07:01:39;;;;;;;7.55;2.70;;;29.10;99.90;;;;;;5033507;28;20193;-87
2023/09/30 07:04:11;;;;;;;5.55;3.05;;;28.80;99.90;;;;;;5033628;28;20584;-87
2023/09/30 07:06:42;;;;;;;7.72;2.90;;;28.60;99.90;;;;;;5031579;28;20200;-87
2023/09/30 07:09:13;;;;;;;8.23;3.17;;;28.30;99.90;;;;;;5021411;28;20201;-86
2023/09/30 07:11:46;;;;;;;6.70;2.90;;;27.90;99.90;;;;;;5033268;28;20201;-86
2023/09/30 07:14:16;;;;;;;8.30;2.83;;;27.60;99.90;;;;;;5032755;28;20225;-87
2023/09/30 07:16:47;;;;;;;8.45;2.78;;;27.30;99.90;;;;;;5030897;28;20207;-86
2023/09/30 07:19:18;;;;;;;8.23;2.80;;;27.20;99.90;;;;;;5030206;28;20201;-86
2023/09/30 07:21:49;;;;;;;7.55;2.67;;;26.90;99.90;;;;;;5031283;28;20193;-86
2023/09/30 07:24:19;;;;;;;6.18;2.67;;;26.80;99.90;;;;;;5033325;28;20570;-84
2023/09/30 07:26:53;;;;;;;9.07;3.17;;;26.50;99.90;;;;;;5036684;28;20197;-84
2023/09/30 07:29:23;;;;;;;6.13;2.67;;;26.30;99.90;;;;;;5028684;28;20226;-86
2023/09/30 07:31:59;;;;;;;5.65;2.65;;;26.00;99.90;;;;;;5031160;28;20201;-88
2023/09/30 07:34:30;;;;;;;6.90;2.80;;;25.80;99.90;;;;;;5024125;28;20189;-86
2023/09/30 07:37:00;;;;;;;5.78;2.67;;;25.70;99.90;;;;;;5013523;28;20213;-87
2023/09/30 07:39:32;;;;;;;5.68;2.75;;;25.40;99.90;;;;;;5013878;28;20205;-88
2023/09/30 07:42:05;;;;;;;9.02;2.90;;;25.30;99.90;;;;;;5031844;28;20201;-88
2023/09/30 07:44:37;;;;;;;7.07;2.78;;;25.20;99.90;;;;;;5033312;28;20201;-88
2023/09/30 07:47:08;;;;;;;9.60;3.00;;;25.10;99.90;;;;;;5031838;28;20194;-87
2023/09/30 07:49:40;;;;;;;6.93;3.00;;;25.00;99.90;;;;;;5032779;28;20203;-87
2023/09/30 07:52:11;;;;;;;6.43;2.70;;;24.90;99.90;;;;;;5032661;28;20204;-88
2023/09/30 07:54:41;;;;;;;6.72;3.10;;;24.80;99.90;;;;;;5026586;28;20197;-88
2023/09/30 07:57:14;;;;;;;6.30;2.78;;;24.80;99.90;;;;;;5033810;28;20201;-88
2023/09/30 07:59:45;;;;;;;8.77;3.03;;;24.70;99.90;;;;;;5016894;28;20237;-87
2023/09/30 08:02:16;;;;;;;5.93;2.50;;;24.60;99.90;;;;;;5033325;28;20212;-86
2023/09/30 08:04:48;;;;;;;5.20;2.65;;;24.50;99.90;;;;;;5018455;28;20198;-87
2023/09/30 08:07:19;;;;;;;6.70;2.72;;;24.50;99.90;;;;;;5015417;28;20201;-89
2023/09/30 08:09:53;;;;;;;9.10;3.05;;;24.50;99.90;;;;;;5018914;28;20712;-86
2023/09/30 08:12:26;;;;;;;7.50;2.72;;;24.40;99.90;;;;;;5034550;28;20227;-86
2023/09/30 08:14:56;;;;;;;6.53;2.95;;;24.40;99.90;;;;;;5033572;28;20592;-86
2023/09/30 08:17:27;;;;;;;6.60;2.63;;;24.30;99.90;;;;;;5031103;28;20197;-85
2023/09/30 08:19:59;;;;;;;7.03;3.03;;;24.30;99.90;;;;;;5034594;28;20204;-87
2023/09/30 08:22:30;;;;;;;7.30;3.08;;;24.20;99.90;;;;;;5032316;28;20559;-85
2023/09/30 08:25:01;;;;;;;7.57;3.20;;;24.10;99.90;;;;;;5033335;28;20201;-86
2023/09/30 08:27:35;;;;;;;8.85;3.00;;;24.10;99.90;;;;;;5022004;28;20693;-86
2023/09/30 08:30:08;;;;;;;8.63;2.83;;;24.10;99.90;;;;;;5015104;28;20190;-86
2023/09/30 08:32:39;;;;;;;7.35;2.75;;;24.10;99.90;;;;;;5025838;28;20519;-87
2023/09/30 08:35:14;;;;;;;7.68;3.20;;;24.00;99.90;;;;;;5029301;28;20225;-86
2023/09/30 08:37:45;;;;;;;8.40;2.80;;;24.00;99.90;;;;;;5028168;28;20571;-89
2023/09/30 08:40:16;;;;;;;8.20;2.72;;;24.00;99.90;;;;;;5032016;28;20208;-87
2023/09/30 08:42:52;;;;;;;5.45;3.00;;;23.90;99.90;;;;;;5031909;28;20205;-87
2023/09/30 08:45:23;;;;;;;7.15;2.90;;;23.90;99.90;;;;;;5035388;28;20680;-87
2023/09/30 08:47:54;;;;;;;8.10;2.78;;;23.90;99.90;;;;;;5032167;28;20189;-88
2023/09/30 08:50:26;;;;;;;8.93;3.13;;;23.90;99.90;;;;;;5033302;28;20193;-87
2023/09/30 08:52:57;;;;;;;10.40;3.70;;;23.90;99.90;;;;;;5042319;28;20204;-84
2023/09/30 08:55:29;;;;;;;6.47;2.80;;;24.00;99.90;;;;;;5020018;28;20240;-84
2023/09/30 08:58:02;;;;;;;10.35;2.97;;;23.90;99.90;;;;;;5011710;28;20218;-85
2023/09/30 09:00:33;;;;;;;7.30;2.72;;;23.80;99.90;;;;;;5011312;28;20208;-84
2023/09/30 09:03:07;;;;;;;6.05;2.80;;;23.90;99.90;;;;;;5011738;28;20200;-83
2023/09/30 09:05:38;;;;;;;7.30;2.90;;;23.90;99.90;;;;;;5012147;28;20198;-83
2023/09/30 09:08:11;;;;;;;5.43;2.80;;;23.80;99.90;;;;;;5015582;28;20201;-84
2023/09/30 09:10:58;;;;;;;7.65;2.80;;;23.80;99.90;;;;;;5031020;28;20236;-85
2023/09/30 09:13:31;;;;;;;7.63;2.50;;;23.80;99.90;;;;;;5012485;28;20237;-83
2023/09/30 09:16:11;;;;;;;6.35;2.60;;;23.90;99.90;;;;;;5012789;28;20228;-84
2023/09/30 09:18:42;;;;;;;6.45;2.78;;;23.90;99.90;;;;;;5012583;28;20198;-84
2023/09/30 09:21:14;;;;;;;6.40;2.60;;;23.90;99.90;;;;;;5015777;28;20564;-86
2023/09/30 09:23:45;;;;;;;6.15;2.80;;;23.90;99.90;;;;;;5032701;28;20197;-82
2023/09/30 09:26:27;;;;;;;7.95;2.65;;;23.80;99.90;;;;;;5029822;28;20198;-84
2023/09/30 09:29:03;;;;;;;7.32;2.90;;;23.80;99.90;;;;;;5016375;28;20312;-83
2023/09/30 09:31:37;;;;;;;6.85;2.60;;;23.80;99.90;;;;;;5022060;28;20570;-83
2023/09/30 09:34:15;;;;;;;8.43;2.90;;;23.80;99.90;;;;;;5012295;28;20206;-82
2023/09/30 09:36:46;;;;;;;8.82;2.97;;;23.80;99.90;;;;;;5023614;28;20228;-83
2023/09/30 09:39:17;;;;;;;9.95;3.17;;;23.80;99.90;;;;;;5031606;28;20197;-85
2023/09/30 09:41:57;;;;;;;10.13;3.38;;;23.70;99.90;;;;;;5034219;28;20200;-84
2023/09/30 09:44:30;;;;;;;11.25;3.40;;;23.70;99.90;;;;;;5045774;28;20216;-84
2023/09/30 09:47:04;;;;;;;8.88;3.65;;;23.70;99.90;;;;;;5045734;28;20247;-83
2023/09/30 09:49:35;;;;;;;8.10;3.40;;;23.60;99.90;;;;;;5043752;28;20197;-84
2023/09/30 09:52:06;;;;;;;12.27;3.97;;;23.50;99.90;;;;;;5028634;28;20642;-83
2023/09/30 09:54:39;;;;;;;11.73;3.83;;;23.50;99.90;;;;;;5019370;28;20653;-85
2023/09/30 09:57:14;;;;;;;6.18;3.15;;;23.50;99.90;;;;;;5031213;28;20225;-85
2023/09/30 09:59:47;;;;;;;8.60;3.20;;;23.40;99.90;;;;;;5040071;28;20203;-84
2023/09/30 10:02:18;;;;;;;10.40;3.30;;;23.40;99.90;;;;;;5041512;28;20245;-85
2023/09/30 10:04:50;;;;;;;12.65;3.80;;;23.40;99.90;;;;;;5018072;28;20200;-87
2023/09/30 10:07:24;;;;;;;7.93;3.05;;;23.40;99.90;;;;;;5035054;28;20193;-87
2023/09/30 10:09:58;;;;;;;12.77;3.38;;;23.40;99.90;;;;;;5035013;28;20675;-86
2023/09/30 10:12:30;;;;;;;10.18;3.42;;;23.40;99.90;;;;;;5034383;28;20229;-86
2023/09/30 10:15:03;;;;;;;10.98;3.50;;;23.40;99.90;;;;;;5034776;28;20199;-86
2023/09/30 10:18:03;;;;;;;9.10;3.30;;;23.40;99.90;;;;;;5044873;28;20303;-87
2023/09/30 10:20:34;;;;;;;8.13;3.47;;;23.30;99.90;;;;;;5022224;28;20201;-86
2023/09/30 10:23:32;;;;;;;11.07;3.35;;;23.30;99.90;;;;;;5026910;28;20220;-86
2023/09/30 10:26:19;;;;;;;10.95;3.90;;;23.30;99.90;;;;;;5020027;28;20198;-85
2023/09/30 10:28:51;;;;;;;9.48;3.63;;;23.30;99.90;;;;;;5034085;28;20218;-86
2023/09/30 10:31:25;;;;;;;9.95;3.67;;;23.30;99.90;;;;;;5034867;28;20205;-85
2023/09/30 10:34:23;;;;;;;8.52;3.78;;;23.30;99.90;;;;;;5031503;28;20612;-85
2023/09/30 10:36:53;;;;;;;10.07;3.10;;;23.20;99.90;;;;;;5012874;28;20603;-85
2023/09/30 10:40:03;;;;;;;8.68;3.60;;;23.10;99.90;;;;;;5022357;28;20185;-87
2023/09/30 10:42:54;;;;;;;11.07;3.67;;;23.10;99.90;;;;;;5033767;28;20208;-85
2023/09/30 10:45:46;;;;;;;9.23;3.65;;;23.10;99.90;;;;;;5019184;28;20186;-86
2023/09/30 10:48:44;;;;;;;11.82;3.83;;;23.00;99.90;;;;;;5033811;28;20193;-85
2023/09/30 10:51:20;;;;;;;8.55;3.47;;;23.00;99.90;;;;;;5027975;28;20568;-86
2023/09/30 10:53:56;;;;;;;9.93;3.55;;;23.00;99.90;;;;;;5018061;28;20198;-85
2023/09/30 10:56:34;;;;;;;8.48;3.60;;;23.00;99.90;;;;;;5018170;28;20218;-85
2023/09/30 10:59:05;;;;;;;9.63;3.55;;;22.90;99.90;;;;;;5016246;28;20204;-88
2023/09/30 11:01:37;;;;;;;6.55;3.30;;;22.90;99.90;;;;;;5015678;28;20842;-87
2023/09/30 11:04:10;;;;;;;9.88;3.53;;;22.90;99.90;;;;;;5033693;28;20724;-85
2023/09/30 11:06:44;;;;;;;8.43;3.13;;;22.90;99.90;;;;;;5033942;28;20208;-84
2023/09/30 11:09:19;;;;;;;9.73;3.80;;;22.90;99.90;;;;;;5014406;28;20194;-84
2023/09/30 11:11:51;;;;;;;7.38;3.47;;;22.80;99.90;;;;;;5013856;28;20208;-85
2023/09/30 11:14:23;;;;;;;10.00;3.38;;;22.80;99.90;;;;;;5013107;28;20233;-84
2023/09/30 11:16:54;;;;;;;10.30;3.85;;;22.80;99.90;;;;;;5017717;28;20586;-85
2023/09/30 11:19:27;;;;;;;9.73;3.50;;;22.80;99.90;;;;;;5035969;28;20193;-84
2023/09/30 11:21:59;;;;;;;9.32;3.42;;;22.80;99.90;;;;;;5021986;28;20688;-85
2023/09/30 11:24:30;;;;;;;9.98;3.70;;;22.70;99.90;;;;;;5028724;28;20201;-85
2023/09/30 11:27:01;;;;;;;8.95;3.42;;;22.70;99.90;;;;;;5041997;28;20197;-84
2023/09/30 11:29:32;;;;;;;8.50;3.45;;;22.70;99.90;;;;;;5028835;28;20251;-84
2023/09/30 11:32:03;;;;;;;11.15;3.30;;;22.70;99.90;;;;;;5032063;28;20687;-84
2023/09/30 11:34:42;;;;;;;11.00;3.45;;;22.60;99.90;;;;;;5022147;28;20646;-85
2023/09/30 11:37:13;;;;;;;6.85;3.00;;;22.60;99.90;;;;;;5013448;28;20216;-84
2023/09/30 11:39:43;;;;;;;9.77;3.53;;;22.60;99.90;;;;;;5023934;28;20541;-84
2023/09/30 11:42:19;;;;;;;8.13;3.58;;;22.60;99.90;;;;;;5041735;28;20194;-84
2023/09/30 11:44:51;;;;;;;12.55;3.60;;;22.60;99.90;;;;;;5032253;28;20207;-85
2023/09/30 11:47:34;;;;;;;8.77;3.58;;;22.50;99.90;;;;;;5033422;28;20208;-84
2023/09/30 11:50:07;;;;;;;12.18;3.58;;;22.50;99.90;;;;;;5021607;28;20233;-84
2023/09/30 11:52:40;;;;;;;10.38;3.10;;;22.50;99.90;;;;;;5013425;28;20256;-84
2023/09/30 11:55:16;;;;;;;13.68;3.83;;;22.40;99.90;;;;;;5024915;28;20193;-84
2023/09/30 11:57:47;;;;;;;13.73;3.63;;;22.40;99.90;;;;;;5027190;28;20246;-84
2023/09/30 12:00:18;;;;;;;9.85;3.47;;;22.40;99.90;;;;;;5035164;28;20550;-85
2023/09/30 12:02:49;;;;;;;12.68;3.90;;;22.40;99.90;;;;;;5014329;28;20236;-86
2023/09/30 12:05:22;;;;;;;12.68;3.67;;;22.30;99.90;;;;;;5020158;28;20223;-84
2023/09/30 12:07:53;;;;;;;11.98;3.75;;;22.40;99.90;;;;;;5031365;28;20649;-84
2023/09/30 12:10:25;;;;;;;13.43;3.55;;;22.40;99.90;;;;;;5027082;28;20565;-85
2023/09/30 12:12:59;;;;;;;15.82;4.30;;;22.40;99.90;;;;;;5022941;28;20225;-84
2023/09/30 12:15:30;;;;;;;9.48;3.53;;;22.30;99.90;;;;;;5025656;28;20202;-84
2023/09/30 12:18:01;;;;;;;10.27;4.00;;;22.30;99.90;;;;;;5023874;28;20282;-84
2023/09/30 12:20:34;;;;;;;12.05;3.88;;;22.30;99.90;;;;;;5027219;28;20273;-84
2023/09/30 12:23:05;;;;;;;10.13;3.97;;;22.30;99.90;;;;;;5023086;28;20700;-85
2023/09/30 12:25:37;;;;;;;13.65;3.95;;;22.30;99.90;;;;;;5025013;28;20198;-84
2023/09/30 12:28:08;;;;;;;11.00;3.67;;;22.20;99.90;;;;;;5023220;28;20224;-85
2023/09/30 12:30:39;;;;;;;14.63;3.67;;;22.20;99.90;;;;;;5021380;28;20198;-86
2023/09/30 12:33:10;;;;;;;11.98;3.83;;;22.20;99.90;;;;;;5045736;28;20200;-85
2023/09/30 12:35:52;;;;;;;16.33;3.90;;;22.20;99.90;;;;;;5035685;28;20211;-85
2023/09/30 12:38:23;;;;;;;12.48;4.05;;;22.20;99.90;;;;;;5036499;28;20232;-85
2023/09/30 12:40:56;;;;;;;12.57;3.72;;;22.10;99.90;;;;;;5022711;28;20680;-84
2023/09/30 12:43:27;;;;;;;9.88;3.67;;;22.10;99.90;;;;;;5022047;28;20280;-84
2023/09/30 12:45:59;;;;;;;11.27;3.60;;;22.10;99.90;;;;;;5027722;28;20204;-84
2023/09/30 12:48:30;;;;;;;10.88;3.85;;;22.10;99.90;;;;;;5022934;28;20211;-85
2023/09/30 12:51:06;;;;;;;13.60;3.90;;;22.00;99.90;;;;;;5031297;28;20207;-85
2023/09/30 12:53:37;;;;;;;14.80;3.85;;;21.90;99.90;;;;;;5032836;28;20640;-85
2023/09/30 12:56:07;;;;;;;11.35;3.70;;;21.90;99.90;;;;;;5031619;28;20201;-85
2023/09/30 12:58:38;;;;;;;12.25;4.28;;;21.90;99.90;;;;;;5015990;28;20186;-85
2023/09/30 13:01:09;;;;;;;12.38;3.97;;;21.90;99.90;;;;;;5033529;28;20215;-85
2023/09/30 13:03:42;;;;;;;14.38;4.32;;;21.90;99.90;;;;;;5033768;28;20223;-84
2023/09/30 13:06:15;;;;;;;14.75;3.97;;;22.00;99.90;;;;;;5032927;28;20240;-83
2023/09/30 13:08:46;;;;;;;12.40;3.97;;;21.90;99.90;;;;;;5031950;28;20261;-85
2023/09/30 13:11:17;;;;;;;13.43;3.80;;;21.90;99.90;;;;;;5031987;28;20201;-84